Position Fahrer Laps Zeit Diff Beste Runde Fahrzeug Status Gesamt Bonuspunkte Strafpunkte
1 Florian Maak 15 25:01.266 - 1:37.777 BMW M240i Cup Beendet 76 0 0
2 Domi Hofmann 15 25:05.694 0:04.428 1:37.725 BMW M240i Cup Beendet 71 0 0
3 Luis Roters 15 25:13.393 0:12.127 1:38.327 BMW M240i Cup Beendet 67 0 0
4 Alessio Bender 15 25:13.902 0:12.636 1:38.445 BMW M240i Cup Beendet 64 0 0
5 Noah Cebulla 15 25:15.988 0:14.722 1:37.988 BMW M240i Cup Beendet 62 0 0
6 Elias Ferfer 15 25:20.477 0:19.211 1:37.687 BMW M240i Cup Beendet 60 0 0
7 Pascal Reihe 15 25:25.781 0:24.515 1:39.242 BMW M240i Cup Beendet 58 0 0
8 Philip Goik 15 25:26.361 0:25.095 1:39.048 BMW M240i Cup Beendet 56 0 0
9 Lukas König 15 25:42.806 0:41.540 1:40.127 BMW M240i Cup Beendet 54 0 0
10 Lars Braun 15 25:53.075 0:51.809 1:40.586 BMW M240i Cup Beendet 52 0 0
11 Andreas Wagner 15 25:55.390 0:54.124 1:40.110 BMW M240i Cup Beendet 50 0 0
12 Christian Köhne 15 26:01.556 1:00.290 1:40.002 BMW M240i Cup Beendet 49 0 0
13 Florian Ponath 15 26:02.884 1:01.618 1:39.997 BMW M240i Cup Beendet 48 0 0
14 Gero Mulkau 15 26:03.820 1:02.554 1:40.045 BMW M240i Cup Beendet 47 0 0
15 Maximilian Maass 15 26:13.029 1:11.763 1:39.586 BMW M240i Cup Beendet 46 0 0
16 Maximilian Gladki 15 26:14.313 1:13.047 1:40.811 BMW M240i Cup Beendet 45 0 0
17 Sebastian Ponath 15 26:16.299 1:15.033 1:41.472 BMW M240i Cup Beendet 44 0 0
18 Damian Gladki 15 26:47.385 1:46.119 1:42.596 BMW M240i Cup Beendet 43 0 0
19 Alexander Fischbock 14 25:35.551 -1L 1:43.324 BMW M240i Cup Beendet 42 0 0

Rennverlauf

Die schnellsten 5 pro Runde

Runde 1

Pos Rennpos Fahrer Zeit S1 S2 S3 Diff
1 1 Pascal Reihe 2:00.254 0:49.407 0:44.730 0:26.117 -
2 2 Philip Goik 2:02.218 0:50.839 0:45.639 0:25.740 0:01.964
3 3 Alessio Bender 2:03.104 0:51.419 0:46.319 0:25.366 0:02.850
4 4 Florian Maak 2:03.720 0:52.377 0:46.048 0:25.295 0:03.466
5 5 Domi Hofmann 2:04.236 0:52.848 0:45.940 0:25.448 0:03.982

Runde 2

Pos Rennpos Fahrer Zeit S1 S2 S3 Diff
1 6 Luis Roters 1:39.481 0:29.393 0:44.749 0:25.339 -
2 5 Domi Hofmann 1:39.512 0:29.601 0:44.496 0:25.415 0:00.031
3 4 Florian Maak 1:39.562 0:29.407 0:44.663 0:25.492 0:00.081
4 1 Pascal Reihe 1:39.867 0:29.747 0:44.515 0:25.605 0:00.386
5 7 Noah Cebulla 1:40.036 0:29.814 0:44.981 0:25.241 0:00.555

Runde 3

Pos Rennpos Fahrer Zeit S1 S2 S3 Diff
1 10 Elias Ferfer 1:38.591 0:29.436 0:43.883 0:25.272 -
2 2 Florian Maak 1:39.523 0:29.445 0:44.523 0:25.555 0:00.932
3 7 Noah Cebulla 1:39.802 0:29.368 0:44.968 0:25.466 0:01.211
4 5 Domi Hofmann 1:39.911 0:29.878 0:44.681 0:25.352 0:01.320
5 4 Alessio Bender 1:39.988 0:30.045 0:44.685 0:25.258 0:01.397

Runde 4

Pos Rennpos Fahrer Zeit S1 S2 S3 Diff
1 10 Elias Ferfer 1:38.607 0:29.194 0:43.808 0:25.605 -
2 2 Florian Maak 1:38.951 0:29.453 0:44.560 0:24.938 0:00.344
3 4 Domi Hofmann 1:39.290 0:29.550 0:44.504 0:25.236 0:00.683
4 3 Alessio Bender 1:39.307 0:29.490 0:44.657 0:25.160 0:00.700
5 1 Pascal Reihe 1:40.202 0:29.728 0:44.491 0:25.983 0:01.595

Runde 5

Pos Rennpos Fahrer Zeit S1 S2 S3 Diff
1 9 Elias Ferfer 1:38.766 0:29.641 0:43.862 0:25.263 -
2 4 Luis Roters 1:38.812 0:29.247 0:44.217 0:25.348 0:00.046
3 1 Florian Maak 1:38.908 0:29.725 0:44.096 0:25.087 0:00.142
4 6 Noah Cebulla 1:39.632 0:30.197 0:44.181 0:25.254 0:00.866
5 2 Domi Hofmann 1:39.830 0:30.094 0:43.915 0:25.821 0:01.064

Runde 6

Pos Rennpos Fahrer Zeit S1 S2 S3 Diff
1 1 Florian Maak 1:38.038 0:29.305 0:43.619 0:25.114 -
2 2 Domi Hofmann 1:38.327 0:29.414 0:43.741 0:25.172 0:00.289
3 9 Elias Ferfer 1:38.653 0:29.168 0:44.289 0:25.196 0:00.615
4 6 Noah Cebulla 1:38.773 0:29.527 0:44.122 0:25.124 0:00.735
5 5 Alessio Bender 1:39.052 0:30.058 0:43.911 0:25.083 0:01.014

Runde 7

Pos Rennpos Fahrer Zeit S1 S2 S3 Diff
1 2 Domi Hofmann 1:37.725 0:29.153 0:43.479 0:25.093 -
2 1 Florian Maak 1:37.885 0:29.309 0:43.655 0:24.921 0:00.160
3 8 Elias Ferfer 1:38.191 0:28.945 0:44.113 0:25.133 0:00.466
4 3 Luis Roters 1:39.307 0:29.643 0:44.504 0:25.160 0:01.582
5 7 Philip Goik 1:40.138 0:29.978 0:44.600 0:25.560 0:02.413

Runde 8

Pos Rennpos Fahrer Zeit S1 S2 S3 Diff
1 2 Domi Hofmann 1:37.812 0:29.110 0:43.609 0:25.093 -
2 8 Elias Ferfer 1:38.038 0:29.048 0:43.767 0:25.223 0:00.226
3 1 Florian Maak 1:38.285 0:29.102 0:44.074 0:25.109 0:00.473
4 3 Luis Roters 1:38.663 0:29.341 0:44.077 0:25.245 0:00.851
5 4 Alessio Bender 1:39.161 0:29.259 0:44.635 0:25.267 0:01.349

Runde 9

Pos Rennpos Fahrer Zeit S1 S2 S3 Diff
1 8 Elias Ferfer 1:37.687 0:28.985 0:43.772 0:24.930 -
2 1 Florian Maak 1:37.801 0:29.082 0:43.640 0:25.079 0:00.114
3 2 Domi Hofmann 1:38.135 0:29.187 0:43.726 0:25.222 0:00.448
4 3 Luis Roters 1:38.327 0:29.068 0:43.988 0:25.271 0:00.640
5 4 Alessio Bender 1:38.814 0:29.460 0:44.230 0:25.124 0:01.127

Runde 10

Pos Rennpos Fahrer Zeit S1 S2 S3 Diff
1 1 Florian Maak 1:37.804 0:29.107 0:43.785 0:24.912 -
2 2 Domi Hofmann 1:38.256 0:29.162 0:43.871 0:25.223 0:00.452
3 4 Alessio Bender 1:38.869 0:29.097 0:44.486 0:25.286 0:01.065
4 3 Luis Roters 1:39.021 0:29.329 0:44.492 0:25.200 0:01.217
5 8 Elias Ferfer 1:39.303 0:29.499 0:43.892 0:25.912 0:01.499

Runde 11

Pos Rennpos Fahrer Zeit S1 S2 S3 Diff
1 1 Florian Maak 1:38.164 0:29.174 0:43.813 0:25.177 -
2 2 Domi Hofmann 1:38.176 0:29.263 0:43.677 0:25.236 0:00.012
3 5 Noah Cebulla 1:38.625 0:29.374 0:43.996 0:25.255 0:00.461
4 4 Alessio Bender 1:38.632 0:29.058 0:44.315 0:25.259 0:00.468
5 3 Luis Roters 1:38.756 0:29.106 0:44.325 0:25.325 0:00.592

Runde 12

Pos Rennpos Fahrer Zeit S1 S2 S3 Diff
1 1 Florian Maak 1:37.867 0:29.049 0:43.865 0:24.953 -
2 2 Domi Hofmann 1:38.313 0:29.175 0:44.122 0:25.016 0:00.446
3 4 Alessio Bender 1:38.609 0:29.193 0:44.171 0:25.245 0:00.742
4 6 Elias Ferfer 1:38.655 0:29.003 0:44.164 0:25.488 0:00.788
5 3 Luis Roters 1:38.777 0:29.307 0:44.293 0:25.177 0:00.910

Runde 13

Pos Rennpos Fahrer Zeit S1 S2 S3 Diff
1 1 Florian Maak 1:37.777 0:29.031 0:43.785 0:24.961 -
2 6 Elias Ferfer 1:37.866 0:28.899 0:43.785 0:25.182 0:00.089
3 2 Domi Hofmann 1:38.271 0:28.948 0:44.078 0:25.245 0:00.494
4 5 Noah Cebulla 1:38.371 0:29.237 0:43.880 0:25.254 0:00.594
5 4 Alessio Bender 1:38.445 0:29.234 0:44.037 0:25.174 0:00.668

Runde 14

Pos Rennpos Fahrer Zeit S1 S2 S3 Diff
1 1 Florian Maak 1:37.822 0:29.224 0:43.637 0:24.961 -
2 5 Noah Cebulla 1:37.988 0:29.282 0:43.547 0:25.159 0:00.166
3 6 Elias Ferfer 1:38.433 0:29.092 0:44.109 0:25.232 0:00.611
4 2 Domi Hofmann 1:38.459 0:29.335 0:43.893 0:25.231 0:00.637
5 4 Alessio Bender 1:38.720 0:29.578 0:44.257 0:24.885 0:00.898

Runde 15

Pos Rennpos Fahrer Zeit S1 S2 S3 Diff
1 5 Noah Cebulla 1:38.683 0:29.351 0:43.947 0:25.385 -
2 6 Elias Ferfer 1:38.702 0:29.376 0:44.063 0:25.263 0:00.019
3 4 Alessio Bender 1:38.809 0:30.027 0:43.852 0:24.930 0:00.126
4 3 Luis Roters 1:39.061 0:29.419 0:44.307 0:25.335 0:00.378
5 8 Philip Goik 1:39.139 0:29.609 0:44.002 0:25.528 0:00.456

SERVER

0 / 61
virtualracing.org #1 GTM
Training 1Lime Rock Park -- Uphill Chicane
0 / 81
virtualracing.org #3 FS
Training 1Oulton Park International NC
0 / 81
virtualracing.org #4 LSM
Training 1Spa-Francorchamps Endurance
0 / 34
virtualracing.org #5 VRF1S
Training 1Zandvoort 2021
1 / 34
virtualracing.org #6 VRCS
Training 1Donington Park National Circuit
0 / 81
virtualracing.org #P1 BTCC
Training 1Oulton Park International NC
0 / 81
virtualracing.org #P2 CA
Training 1Silverstone Grand Prix
0 / 34
virtualracing.org #P3 Mini
Training 1Silverstone National
0 / 33
virtualracing.org #P4 IR18
Training 1Indianapolis Road Course
0/31
virtualracing.org#4 GTC Training Standard
TrainingDaytona International Speedway - Road Course
0/31
virtualracing.org#5 GTC Training A
TrainingDaytona International Speedway - Road Course
0/24
virtualracing.org#30 ALT Training
TrainingFuji Speedway - Grand Prix Circuit 1968
0/32
virtualracing.org#33 GTC Starttest
TrainingDaytona International Speedway - Road Course